createdAt,value
2022-09-07T00:00:43.210Z,1.63
2022-09-07T00:03:10.202Z,1.27
2022-09-07T00:05:48.087Z,1.63
2022-09-07T00:08:16.634Z,1.50
2022-09-07T00:10:58.805Z,1.40
2022-09-07T00:13:28.645Z,1.27
2022-09-07T00:15:55.750Z,1.37
2022-09-07T00:18:22.444Z,1.47
2022-09-07T00:21:02.045Z,1.43
2022-09-07T00:23:30.230Z,1.30
2022-09-07T00:26:01.983Z,1.63
2022-09-07T00:28:29.399Z,1.23
2022-09-07T00:30:56.067Z,1.70
2022-09-07T00:33:22.791Z,1.67
2022-09-07T00:35:49.511Z,1.40
2022-09-07T00:38:16.397Z,2.17
2022-09-07T00:40:43.507Z,3.00
2022-09-07T00:43:17.490Z,3.23
2022-09-07T00:45:44.182Z,2.90
2022-09-07T00:48:19.999Z,2.77
2022-09-07T01:29:40.425Z,2.00
2022-09-07T01:46:26.958Z,1.60
2022-09-07T01:48:57.963Z,1.67
2022-09-07T01:51:31.552Z,1.73
2022-09-07T01:54:03.160Z,1.70
2022-09-07T01:56:52.085Z,1.53
2022-09-07T01:59:27.395Z,1.60
2022-09-07T02:02:02.057Z,1.83
2022-09-07T02:04:37.719Z,1.63
2022-09-07T02:07:17.305Z,1.60
2022-09-07T02:09:56.968Z,1.73
2022-09-07T02:12:31.054Z,1.70
2022-09-07T02:22:12.191Z,1.47
2022-09-07T02:24:43.200Z,1.70
2022-09-07T02:27:15.135Z,1.77
2022-09-07T02:29:43.696Z,1.80
2022-09-07T02:32:10.429Z,1.43
2022-09-07T02:34:37.278Z,1.60
2022-09-07T02:37:07.905Z,1.73
2022-09-07T02:39:35.057Z,2.23
2022-09-07T02:42:01.860Z,1.47
2022-09-07T02:44:35.663Z,2.40
2022-09-07T02:47:24.375Z,2.40
2022-09-07T02:50:09.251Z,2.20
2022-09-07T02:53:01.963Z,2.60
2022-09-07T02:55:34.538Z,3.43
2022-09-07T02:58:07.250Z,3.37
2022-09-07T03:00:43.468Z,4.20
2022-09-07T03:14:16.271Z,5.53
2022-09-07T03:16:43.465Z,6.10
2022-09-07T03:19:10.180Z,6.10
2022-09-07T03:21:36.805Z,7.43
2022-09-07T03:24:03.690Z,7.03
2022-09-07T03:26:30.419Z,7.67
2022-09-07T03:28:57.560Z,8.10
2022-09-07T03:31:24.394Z,7.83
2022-09-07T03:33:51.079Z,8.00
2022-09-07T03:36:17.756Z,8.07
2022-09-07T03:38:44.511Z,8.43
2022-09-07T03:41:11.144Z,8.97
2022-09-07T03:43:37.712Z,8.93
2022-09-07T03:46:06.892Z,10.40
2022-09-07T03:48:35.152Z,10.53
2022-09-07T03:51:04.647Z,12.10
2022-09-07T03:53:32.908Z,12.50
2022-09-07T03:56:02.246Z,11.63
2022-09-07T03:58:30.492Z,13.23
2022-09-07T04:00:58.179Z,13.73
2022-09-07T04:03:25.339Z,14.00
2022-09-07T04:05:52.119Z,14.47
2022-09-07T04:08:18.859Z,15.47
2022-09-07T04:10:45.502Z,16.53
2022-09-07T04:13:12.094Z,15.60
2022-09-07T04:15:38.691Z,18.60
2022-09-07T04:18:05.365Z,17.80
2022-09-07T04:20:31.971Z,18.17
2022-09-07T04:22:58.596Z,19.10
2022-09-07T04:25:25.291Z,17.87
2022-09-07T04:27:51.939Z,17.77
2022-09-07T04:30:18.576Z,15.83
2022-09-07T04:32:46.727Z,18.00
2022-09-07T04:35:13.797Z,17.47
2022-09-07T04:37:40.507Z,18.03
2022-09-07T04:40:07.535Z,16.73
2022-09-07T04:42:34.193Z,18.10
2022-09-07T04:45:00.887Z,17.80
2022-09-07T04:47:30.715Z,17.10
2022-09-07T04:49:57.451Z,16.70
2022-09-07T04:52:24.661Z,16.80
2022-09-07T04:54:51.811Z,15.97
2022-09-07T04:57:21.841Z,16.37
2022-09-07T04:59:48.888Z,15.33
2022-09-07T05:02:15.929Z,16.27
2022-09-07T05:04:42.722Z,13.23
2022-09-07T05:07:09.479Z,15.20
2022-09-07T05:09:36.778Z,14.40
2022-09-07T05:12:03.434Z,14.17
2022-09-07T05:14:30.044Z,14.53
2022-09-07T05:16:56.690Z,14.23
2022-09-07T05:19:23.484Z,14.87
2022-09-07T05:21:50.119Z,13.03
2022-09-07T05:24:16.858Z,12.97
2022-09-07T05:26:43.503Z,13.40
2022-09-07T05:31:57.042Z,13.10
2022-09-07T05:34:32.321Z,11.73
2022-09-07T05:36:59.579Z,11.33
2022-09-07T05:39:26.974Z,11.50
2022-09-07T05:41:54.184Z,11.53
2022-09-07T05:47:07.720Z,11.30
2022-09-07T05:49:34.744Z,11.70
2022-09-07T05:52:01.378Z,11.90
2022-09-07T05:54:27.974Z,11.40
2022-09-07T05:56:54.606Z,10.90
2022-09-07T05:59:21.217Z,11.83
2022-09-07T06:01:47.919Z,12.87
2022-09-07T06:04:14.563Z,12.23
2022-09-07T06:06:41.259Z,12.73
2022-09-07T06:09:08.167Z,13.00
2022-09-07T06:11:36.479Z,11.33
2022-09-07T06:14:03.126Z,11.77
2022-09-07T06:16:33.315Z,11.73
2022-09-07T06:18:59.972Z,11.63
2022-09-07T06:21:26.852Z,11.00
2022-09-07T06:23:53.477Z,12.43
2022-09-07T06:26:20.252Z,12.50
2022-09-07T06:28:50.253Z,12.90
2022-09-07T06:31:22.914Z,11.80
2022-09-07T06:33:50.872Z,11.83
2022-09-07T06:36:20.060Z,10.83
2022-09-07T06:38:47.575Z,10.00
2022-09-07T06:44:09.376Z,9.33
2022-09-07T06:49:23.943Z,10.73
2022-09-07T06:51:50.556Z,9.87
2022-09-07T06:57:09.140Z,10.33
2022-09-07T06:59:36.758Z,9.57
2022-09-07T07:02:04.163Z,9.47
2022-09-07T07:04:31.822Z,9.03
2022-09-07T07:06:59.402Z,8.50
2022-09-07T07:09:26.079Z,10.63
2022-09-07T07:11:52.678Z,11.07
2022-09-07T07:14:19.357Z,10.93
2022-09-07T07:16:46.786Z,10.37
2022-09-07T07:19:13.644Z,9.93
2022-09-07T07:22:03.550Z,11.07
2022-09-07T07:24:26.834Z,10.33
2022-09-07T07:26:53.630Z,11.50
2022-09-07T07:29:21.926Z,10.40
2022-09-07T07:31:49.513Z,9.30
2022-09-07T07:34:16.188Z,8.87
2022-09-07T07:36:42.785Z,8.73
2022-09-07T07:41:58.999Z,8.60
2022-09-07T07:44:28.386Z,9.60
2022-09-07T07:46:54.969Z,9.10
2022-09-07T07:49:21.793Z,8.03
2022-09-07T07:54:38.473Z,7.17
2022-09-07T07:57:05.840Z,6.10
2022-09-07T07:59:32.601Z,5.63
2022-09-07T08:02:05.500Z,5.37
2022-09-07T08:04:35.749Z,5.37
2022-09-07T08:07:08.607Z,5.57
2022-09-07T08:09:37.357Z,5.30
2022-09-07T08:12:04.138Z,5.27
2022-09-07T08:14:30.734Z,5.10
2022-09-07T08:16:57.325Z,5.20
2022-09-07T08:19:23.839Z,4.83
2022-09-07T08:21:50.302Z,5.00
2022-09-07T08:24:16.841Z,4.87
2022-09-07T08:26:43.400Z,5.27
2022-09-07T08:29:09.898Z,5.50
2022-09-07T08:31:36.493Z,5.47
2022-09-07T08:34:03.070Z,5.53
2022-09-07T08:36:31.854Z,5.30
2022-09-07T08:38:58.430Z,5.80
2022-09-07T08:41:30.768Z,5.53
2022-09-07T08:44:00.423Z,5.63
2022-09-07T08:46:36.182Z,5.70
2022-09-07T08:49:06.141Z,5.53
2022-09-07T08:51:46.878Z,5.73
2022-09-07T08:54:16.712Z,5.43
2022-09-07T09:00:14.472Z,5.70
2022-09-07T09:02:44.260Z,5.67
2022-09-07T09:05:20.285Z,5.83
2022-09-07T09:08:15.717Z,5.80
2022-09-07T09:11:11.639Z,5.83
2022-09-07T09:13:56.921Z,5.73
2022-09-07T09:16:35.858Z,5.30
2022-09-07T09:19:24.672Z,5.23
2022-09-07T09:22:07.740Z,5.60
2022-09-07T09:24:37.794Z,5.50
2022-09-07T09:27:04.427Z,6.10
2022-09-07T09:29:30.918Z,5.43
2022-09-07T09:31:57.457Z,4.50
2022-09-07T09:34:29.329Z,5.33
2022-09-07T09:36:57.901Z,4.27
2022-09-07T09:39:37.277Z,4.87
2022-09-07T09:42:23.784Z,5.73
2022-09-07T09:44:50.907Z,5.00
2022-09-07T09:47:30.234Z,4.80
2022-09-07T09:49:59.652Z,4.87
2022-09-07T09:52:36.981Z,4.50
2022-09-07T09:55:35.894Z,4.10
2022-09-07T10:01:33.557Z,5.17
2022-09-07T10:04:27.998Z,5.53
2022-09-07T10:07:06.103Z,4.70
2022-09-07T10:09:40.099Z,5.10
2022-09-07T10:12:08.821Z,5.10
2022-09-07T10:14:42.270Z,4.73
2022-09-07T10:17:25.718Z,4.87
2022-09-07T10:19:52.614Z,4.53
2022-09-07T10:22:31.243Z,4.20
2022-09-07T10:25:00.931Z,3.83
2022-09-07T10:27:30.129Z,3.50
2022-09-07T10:29:57.270Z,3.70
2022-09-07T10:32:52.825Z,4.40
2022-09-07T10:35:38.707Z,3.83
2022-09-07T10:38:28.895Z,3.87
2022-09-07T10:41:09.785Z,4.03
2022-09-07T10:43:42.416Z,4.20
2022-09-07T10:46:58.755Z,3.87
2022-09-07T10:52:41.727Z,4.03
2022-09-07T10:55:20.315Z,4.27
2022-09-07T10:58:03.054Z,4.30
2022-09-07T11:00:58.751Z,4.17
2022-09-07T11:03:53.069Z,4.00
2022-09-07T11:06:30.345Z,5.27
2022-09-07T11:09:18.599Z,5.10
2022-09-07T11:12:04.338Z,4.63
2022-09-07T11:14:38.817Z,4.90
2022-09-07T11:17:18.608Z,4.20
2022-09-07T11:19:47.990Z,6.37
2022-09-07T11:22:18.079Z,5.77
2022-09-07T11:27:51.313Z,5.30
2022-09-07T11:30:21.687Z,5.57
2022-09-07T11:32:55.466Z,6.10
2022-09-07T11:35:47.281Z,5.90
2022-09-07T11:38:29.021Z,5.93
2022-09-07T11:41:06.342Z,5.53
2022-09-07T11:43:41.348Z,5.53
2022-09-07T11:46:15.873Z,4.87
2022-09-07T11:48:58.003Z,6.73
2022-09-07T11:51:44.956Z,6.13
2022-09-07T11:54:17.381Z,5.33
2022-09-07T11:56:50.377Z,5.03
2022-09-07T11:59:36.759Z,5.13
2022-09-07T12:02:36.700Z,5.40
2022-09-07T12:05:23.724Z,5.13
2022-09-07T12:07:50.290Z,4.93
2022-09-07T12:10:35.740Z,4.50
2022-09-07T12:13:20.625Z,4.37
2022-09-07T12:15:59.470Z,4.07
2022-09-07T12:18:41.326Z,4.23
2022-09-07T12:21:30.853Z,5.13
2022-09-07T12:23:57.666Z,5.17
2022-09-07T12:26:33.605Z,5.63
2022-09-07T12:29:00.087Z,4.87
2022-09-07T12:31:57.795Z,6.07
2022-09-07T12:34:31.288Z,5.40
2022-09-07T12:37:10.099Z,5.50
2022-09-07T12:39:43.426Z,6.00
2022-09-07T12:45:30.999Z,5.07
2022-09-07T12:48:00.095Z,4.23
2022-09-07T12:50:29.579Z,3.87
2022-09-07T12:53:28.062Z,4.63
2022-09-07T12:56:16.291Z,4.00
2022-09-07T12:59:31.434Z,4.10
2022-09-07T13:02:35.401Z,4.17
2022-09-07T13:05:24.773Z,3.43
2022-09-07T13:08:09.719Z,3.70
2022-09-07T13:10:39.737Z,3.20
2022-09-07T13:13:14.683Z,2.43
2022-09-07T13:16:14.951Z,2.80
2022-09-07T13:18:46.425Z,2.33
2022-09-07T13:21:15.337Z,2.63
2022-09-07T13:23:45.508Z,2.47
2022-09-07T13:26:51.306Z,2.43
2022-09-07T13:29:24.103Z,2.50
2022-09-07T13:31:50.682Z,2.60
2022-09-07T13:34:37.531Z,2.50
2022-09-07T13:37:19.593Z,2.80
2022-09-07T13:39:48.579Z,2.30
2022-09-07T13:42:18.729Z,2.60
2022-09-07T13:44:54.684Z,2.40
2022-09-07T13:47:32.644Z,2.63
2022-09-07T13:49:59.131Z,2.30
2022-09-07T13:52:40.756Z,2.50
2022-09-07T13:55:28.378Z,2.10
2022-09-07T13:58:13.020Z,2.33
2022-09-07T14:00:55.034Z,2.00
2022-09-07T14:03:24.371Z,2.13
2022-09-07T14:06:17.094Z,2.00
2022-09-07T14:08:50.841Z,1.97
2022-09-07T14:11:23.710Z,2.43
2022-09-07T14:14:12.253Z,1.77
2022-09-07T14:16:39.064Z,2.07
2022-09-07T14:19:17.255Z,2.07
2022-09-07T14:21:43.996Z,1.70
2022-09-07T14:24:32.219Z,1.87
2022-09-07T14:27:00.191Z,2.00
2022-09-07T14:29:31.286Z,1.83
2022-09-07T14:32:00.124Z,1.73
2022-09-07T14:34:31.281Z,2.00
2022-09-07T14:37:02.305Z,1.50
2022-09-07T14:39:30.131Z,1.43
2022-09-07T14:41:58.890Z,1.50
2022-09-07T14:44:34.188Z,1.50
2022-09-07T14:47:06.034Z,1.60
2022-09-07T14:49:32.876Z,1.50
2022-09-07T14:52:00.660Z,1.50
2022-09-07T14:54:34.269Z,1.73
2022-09-07T14:57:05.652Z,1.27
2022-09-07T14:59:37.145Z,1.60
2022-09-07T15:02:19.493Z,1.50
2022-09-07T15:04:47.431Z,1.50
2022-09-07T15:07:37.737Z,1.60
2022-09-07T15:10:23.705Z,1.50
2022-09-07T15:13:01.322Z,2.10
2022-09-07T15:15:30.392Z,2.30
2022-09-07T15:18:08.536Z,2.30
2022-09-07T15:20:38.704Z,1.70
2022-09-07T15:23:18.461Z,1.83
2022-09-07T15:25:51.136Z,2.10
2022-09-07T15:34:11.514Z,1.67
2022-09-07T15:36:40.783Z,1.60
2022-09-07T15:39:14.306Z,1.90
2022-09-07T15:41:40.803Z,1.70
2022-09-07T15:44:07.645Z,1.83
2022-09-07T15:46:36.673Z,2.13
2022-09-07T15:49:03.789Z,2.60
2022-09-07T15:54:17.257Z,1.80
2022-09-07T15:57:47.672Z,1.93
2022-09-07T15:59:30.650Z,2.50
2022-09-07T16:01:58.240Z,2.23
2022-09-07T16:04:28.460Z,1.77
2022-09-07T16:06:55.068Z,1.63
2022-09-07T16:09:22.109Z,1.33
2022-09-07T16:11:50.118Z,1.90
2022-09-07T16:14:18.774Z,1.53
2022-09-07T16:19:34.947Z,1.73
2022-09-07T16:22:02.154Z,1.93
2022-09-07T16:24:28.820Z,1.77
2022-09-07T16:26:55.525Z,1.67
2022-09-07T16:29:22.072Z,1.70
2022-09-07T16:34:35.266Z,1.93
2022-09-07T16:37:01.851Z,1.90
2022-09-07T16:39:32.078Z,1.77
2022-09-07T16:42:00.089Z,2.03
2022-09-07T16:44:26.813Z,2.80
2022-09-07T16:46:53.383Z,2.17
2022-09-07T16:49:20.027Z,2.53
2022-09-07T16:51:46.637Z,2.63
2022-09-07T16:54:14.355Z,2.10
2022-09-07T16:56:40.875Z,2.23
2022-09-07T16:59:11.608Z,2.77
2022-09-07T17:01:38.486Z,2.53
2022-09-07T17:04:10.313Z,2.40
2022-09-07T17:06:37.515Z,2.03
2022-09-07T17:09:04.262Z,1.87
2022-09-07T17:11:34.033Z,1.57
2022-09-07T17:14:01.318Z,1.87
2022-09-07T17:16:30.797Z,1.77
2022-09-07T17:21:46.516Z,3.00
2022-09-07T17:24:13.132Z,3.13
2022-09-07T17:26:42.324Z,2.43
2022-09-07T17:29:10.446Z,2.80
2022-09-07T17:34:24.560Z,2.87
2022-09-07T17:36:51.630Z,3.00
2022-09-07T17:39:19.336Z,3.13
2022-09-07T17:41:48.441Z,3.00
2022-09-07T17:44:15.295Z,2.63
2022-09-07T17:46:41.799Z,3.80
2022-09-07T17:49:16.649Z,3.30
2022-09-07T17:51:44.005Z,2.97
2022-09-07T17:54:14.373Z,2.60
2022-09-07T17:56:42.020Z,2.70
2022-09-07T18:01:56.570Z,3.13
2022-09-07T18:04:23.650Z,3.60
2022-09-07T18:06:50.711Z,3.80
2022-09-07T18:09:17.600Z,4.00
2022-09-07T18:11:45.735Z,3.80
2022-09-07T18:14:14.715Z,3.80
2022-09-07T18:16:42.551Z,3.87
2022-09-07T18:19:11.118Z,4.10
2022-09-07T18:21:39.323Z,4.10
2022-09-07T18:24:13.523Z,3.83
2022-09-07T18:26:40.914Z,3.93
2022-09-07T18:29:25.810Z,4.50
2022-09-07T18:31:54.599Z,4.40
2022-09-07T18:34:21.369Z,4.20
2022-09-07T18:36:48.060Z,4.30
2022-09-07T18:39:14.722Z,4.37
2022-09-07T18:41:42.209Z,4.50
2022-09-07T18:46:55.924Z,4.00
2022-09-07T18:49:22.532Z,4.57
2022-09-07T18:54:35.764Z,3.83
2022-09-07T18:57:02.221Z,3.53
2022-09-07T18:59:29.810Z,3.13
2022-09-07T19:02:01.306Z,3.03
2022-09-07T19:07:17.747Z,2.90
2022-09-07T19:09:44.280Z,3.07
2022-09-07T19:12:10.756Z,3.17
2022-09-07T19:14:37.413Z,2.70
2022-09-07T19:17:04.019Z,2.87
2022-09-07T19:19:30.643Z,2.97
2022-09-07T19:21:58.344Z,3.00
2022-09-07T19:24:25.801Z,2.80
2022-09-07T19:26:55.699Z,2.80
2022-09-07T19:29:25.245Z,3.23
2022-09-07T19:32:06.762Z,3.07
2022-09-07T19:34:35.758Z,2.93
2022-09-07T19:37:02.894Z,3.60
2022-09-07T19:39:29.450Z,3.07
2022-09-07T19:41:56.316Z,3.60
2022-09-07T19:44:22.845Z,3.20
2022-09-07T19:46:49.563Z,3.17
2022-09-07T19:49:16.346Z,3.50
2022-09-07T19:51:45.263Z,3.30
2022-09-07T19:54:13.288Z,3.43
2022-09-07T19:56:42.779Z,3.30
2022-09-07T19:59:10.024Z,3.47
2022-09-07T20:01:37.914Z,3.03
2022-09-07T20:04:07.422Z,2.97
2022-09-07T20:06:38.058Z,2.93
2022-09-07T20:09:05.150Z,2.93
2022-09-07T20:11:32.654Z,2.90
2022-09-07T20:13:59.439Z,2.50
2022-09-07T20:16:28.106Z,2.90
2022-09-07T20:18:54.804Z,3.03
2022-09-07T20:21:23.574Z,3.00
2022-09-07T20:23:51.063Z,3.23
2022-09-07T20:26:20.037Z,3.13
2022-09-07T20:29:01.935Z,3.00
2022-09-07T20:31:38.788Z,2.90
2022-09-07T20:34:05.590Z,3.00
2022-09-07T20:36:32.318Z,3.00
2022-09-07T20:38:58.785Z,2.63
2022-09-07T20:41:31.284Z,2.97
2022-09-07T20:44:00.180Z,2.70
2022-09-07T20:46:28.421Z,3.23
2022-09-07T20:48:55.238Z,3.07
2022-09-07T20:51:22.159Z,3.40
2022-09-07T20:53:49.329Z,3.30
2022-09-07T20:56:24.876Z,3.10
2022-09-07T20:59:02.496Z,3.03
2022-09-07T21:01:31.493Z,3.70
2022-09-07T21:04:00.882Z,3.50
2022-09-07T21:06:28.763Z,3.40
2022-09-07T21:08:57.901Z,3.37
2022-09-07T21:11:35.228Z,3.33
2022-09-07T21:14:22.600Z,3.07
2022-09-07T21:16:49.080Z,2.60
2022-09-07T21:19:15.805Z,3.10
2022-09-07T21:21:43.057Z,3.03
2022-09-07T21:24:21.907Z,2.90
2022-09-07T21:26:49.792Z,2.50
2022-09-07T21:29:23.353Z,3.40
2022-09-07T21:31:50.438Z,3.67
2022-09-07T21:34:17.236Z,3.07
2022-09-07T21:36:43.879Z,3.10
2022-09-07T21:39:13.810Z,2.83
2022-09-07T21:41:41.292Z,2.57
2022-09-07T21:44:07.852Z,2.87
2022-09-07T21:46:34.435Z,3.20
2022-09-07T21:49:01.190Z,3.03
2022-09-07T21:51:28.159Z,3.37
2022-09-07T21:53:59.446Z,3.03
2022-09-07T21:56:30.325Z,3.20
2022-09-07T21:58:58.973Z,3.30
2022-09-07T22:01:27.126Z,3.43
2022-09-07T22:03:56.430Z,3.53
2022-09-07T22:06:23.841Z,3.20
2022-09-07T22:08:50.969Z,3.47
2022-09-07T22:11:20.197Z,3.03
2022-09-07T22:13:47.050Z,2.53
2022-09-07T22:16:15.085Z,2.87
2022-09-07T22:18:46.168Z,3.30
2022-09-07T22:21:18.992Z,2.90
2022-09-07T22:23:48.724Z,2.60
2022-09-07T22:26:19.157Z,3.53
2022-09-07T22:28:45.755Z,3.00
2022-09-07T22:31:24.477Z,3.10
2022-09-07T22:33:52.492Z,3.20
2022-09-07T22:36:21.918Z,2.90
2022-09-07T22:38:52.167Z,3.73
2022-09-07T22:41:20.967Z,3.60
2022-09-07T22:43:50.851Z,3.50
2022-09-07T22:46:19.827Z,4.07
2022-09-07T22:48:46.732Z,3.43
2022-09-07T22:51:13.359Z,3.47
2022-09-07T22:53:41.810Z,3.40
2022-09-07T22:56:09.679Z,3.50
2022-09-07T22:58:37.520Z,3.40
2022-09-07T23:01:05.712Z,3.43
2022-09-07T23:03:34.534Z,3.77
2022-09-07T23:06:01.587Z,3.77
2022-09-07T23:08:28.219Z,3.40
2022-09-07T23:10:54.724Z,3.73
2022-09-07T23:13:21.330Z,3.57
2022-09-07T23:15:48.417Z,3.87
2022-09-07T23:18:16.693Z,3.90
2022-09-07T23:20:43.345Z,3.30
2022-09-07T23:23:10.600Z,3.70
2022-09-07T23:25:38.163Z,3.60
2022-09-07T23:28:07.299Z,3.67
2022-09-07T23:30:35.728Z,3.50
2022-09-07T23:33:02.979Z,3.20
2022-09-07T23:35:29.784Z,3.67
2022-09-07T23:37:56.902Z,3.63
2022-09-07T23:40:23.925Z,3.53
2022-09-07T23:42:50.551Z,3.27
2022-09-07T23:45:17.146Z,3.67
2022-09-07T23:47:44.004Z,3.67
2022-09-07T23:50:10.973Z,3.83
2022-09-07T23:52:38.002Z,3.60
2022-09-07T23:55:04.859Z,3.17
2022-09-07T23:57:31.662Z,3.90
2022-09-07T23:59:58.872Z,3.37
